createdAt,value
2019-03-25T00:01:48.501Z,8.24
2019-03-25T00:04:18.431Z,8.14
2019-03-25T00:06:48.538Z,8.09
2019-03-25T00:09:18.430Z,8.01
2019-03-25T00:11:48.328Z,8.06
2019-03-25T00:14:18.230Z,7.94
2019-03-25T00:16:48.181Z,8.02
2019-03-25T00:19:18.122Z,8.05
2019-03-25T00:21:48.005Z,8.12
2019-03-25T00:24:17.924Z,7.97
2019-03-25T00:26:47.809Z,8.00
2019-03-25T00:29:17.698Z,8.02
2019-03-25T00:31:47.613Z,8.03
2019-03-25T00:34:17.553Z,7.79
2019-03-25T00:36:47.462Z,7.86
2019-03-25T00:39:17.406Z,7.75
2019-03-25T00:41:47.355Z,7.72
2019-03-25T00:44:17.277Z,7.68
2019-03-25T00:46:47.187Z,7.64
2019-03-25T00:49:17.082Z,7.52
2019-03-25T00:51:47.017Z,7.55
2019-03-25T00:54:16.908Z,7.44
2019-03-25T00:56:46.825Z,7.49
2019-03-25T00:59:16.765Z,7.46
2019-03-25T01:01:46.665Z,7.51
2019-03-25T01:04:16.605Z,7.52
2019-03-25T01:06:46.526Z,7.51
2019-03-25T01:09:16.419Z,7.45
2019-03-25T01:11:49.283Z,7.44
2019-03-25T01:14:17.965Z,7.35
2019-03-25T01:16:47.949Z,7.34
2019-03-25T01:19:18.063Z,7.32
2019-03-25T01:21:47.899Z,7.18
2019-03-25T01:24:17.825Z,7.13
2019-03-25T01:26:47.783Z,6.98
2019-03-25T01:29:17.688Z,6.90
2019-03-25T01:31:47.604Z,6.95
2019-03-25T01:34:17.543Z,7.00
2019-03-25T01:36:47.452Z,6.94
2019-03-25T01:39:17.378Z,6.95
2019-03-25T01:41:47.347Z,6.90
2019-03-25T01:44:17.242Z,7.02
2019-03-25T01:46:47.207Z,7.08
2019-03-25T01:49:17.102Z,7.02
2019-03-25T01:51:46.976Z,6.95
2019-03-25T01:54:16.902Z,6.90
2019-03-25T01:56:46.884Z,6.96
2019-03-25T01:59:16.787Z,6.81
2019-03-25T02:01:46.700Z,6.83
2019-03-25T02:04:16.624Z,6.76
2019-03-25T02:06:46.563Z,6.73
2019-03-25T02:09:17.392Z,6.59
2019-03-25T02:11:47.344Z,6.58
2019-03-25T02:14:17.234Z,6.59
2019-03-25T02:16:47.176Z,6.61
2019-03-25T02:19:17.231Z,6.62
2019-03-25T02:21:47.124Z,6.66
2019-03-25T02:24:17.037Z,6.68
2019-03-25T02:26:46.953Z,6.68
2019-03-25T02:29:16.886Z,6.59
2019-03-25T02:31:46.771Z,6.60
2019-03-25T02:34:16.707Z,6.71
2019-03-25T02:36:46.580Z,6.73
2019-03-25T02:39:16.519Z,6.60
2019-03-25T02:41:46.439Z,6.42
2019-03-25T02:44:16.327Z,6.33
2019-03-25T02:46:46.227Z,6.29
2019-03-25T02:49:16.217Z,6.09
2019-03-25T02:51:46.087Z,5.96
2019-03-25T02:54:16.025Z,5.94
2019-03-25T02:56:45.939Z,5.87
2019-03-25T02:59:15.869Z,5.81
2019-03-25T03:01:45.763Z,5.70
2019-03-25T03:04:15.793Z,5.71
2019-03-25T03:06:45.688Z,5.67
2019-03-25T03:09:15.610Z,5.62
2019-03-25T03:11:45.549Z,5.69
2019-03-25T03:14:15.686Z,5.52
2019-03-25T03:16:45.673Z,5.49
2019-03-25T03:19:15.634Z,5.49
2019-03-25T03:21:45.545Z,5.47
2019-03-25T03:24:15.493Z,5.37
2019-03-25T03:26:45.447Z,5.29
2019-03-25T03:29:15.377Z,5.29
2019-03-25T03:31:45.373Z,5.30
2019-03-25T03:34:15.301Z,5.28
2019-03-25T03:36:45.207Z,5.27
2019-03-25T03:39:15.107Z,5.28
2019-03-25T03:41:44.996Z,5.41
2019-03-25T03:44:14.948Z,5.43
2019-03-25T03:46:44.950Z,5.46
2019-03-25T03:49:14.840Z,5.38
2019-03-25T03:51:44.832Z,5.36
2019-03-25T03:54:14.755Z,5.36
2019-03-25T03:56:45.079Z,5.36
2019-03-25T03:59:15.749Z,5.22
2019-03-25T04:01:45.659Z,5.24
2019-03-25T04:04:15.634Z,5.24
2019-03-25T04:06:45.542Z,5.26
2019-03-25T04:09:15.456Z,5.27
2019-03-25T04:11:45.439Z,5.32
2019-03-25T04:14:15.364Z,5.31
2019-03-25T04:16:45.345Z,5.24
2019-03-25T04:19:15.211Z,5.27
2019-03-25T04:21:45.148Z,5.16
2019-03-25T04:24:15.075Z,5.12
2019-03-25T04:26:45.051Z,5.07
2019-03-25T04:29:14.987Z,5.01
2019-03-25T04:31:44.888Z,5.01
2019-03-25T04:34:14.770Z,5.05
2019-03-25T04:36:44.702Z,4.99
2019-03-25T04:39:14.607Z,4.99
2019-03-25T04:41:44.527Z,4.95
2019-03-25T04:44:14.466Z,5.02
2019-03-25T04:46:44.379Z,5.10
2019-03-25T04:49:14.309Z,5.03
2019-03-25T04:51:44.943Z,5.07
2019-03-25T04:54:15.097Z,5.20
2019-03-25T04:56:44.999Z,5.22
2019-03-25T04:59:14.917Z,5.27
2019-03-25T05:01:44.833Z,5.17
2019-03-25T05:04:14.770Z,5.16
2019-03-25T05:06:44.772Z,5.16
2019-03-25T05:09:14.684Z,5.21
2019-03-25T05:11:47.203Z,5.24
2019-03-25T05:14:17.172Z,5.19
2019-03-25T05:16:47.172Z,5.23
2019-03-25T05:19:17.089Z,5.20
2019-03-25T05:21:49.107Z,5.22
2019-03-25T05:24:19.071Z,5.27
2019-03-25T05:26:51.293Z,5.27
2019-03-25T05:29:20.767Z,5.42
2019-03-25T05:31:50.695Z,5.48
2019-03-25T05:34:20.621Z,5.53
2019-03-25T05:36:50.563Z,5.55
2019-03-25T05:39:20.448Z,5.67
2019-03-25T05:41:50.374Z,5.81
2019-03-25T05:44:20.266Z,5.78
2019-03-25T05:46:50.214Z,5.87
2019-03-25T05:49:20.119Z,5.91
2019-03-25T05:51:50.039Z,6.00
2019-03-25T05:54:19.948Z,6.01
2019-03-25T05:56:49.876Z,6.19
2019-03-25T05:59:19.860Z,6.32
2019-03-25T06:01:49.924Z,6.29
2019-03-25T06:04:19.829Z,6.36
2019-03-25T06:06:52.055Z,6.39
2019-03-25T06:09:21.315Z,6.58
2019-03-25T06:11:51.228Z,6.62
2019-03-25T06:14:21.136Z,6.76
2019-03-25T06:16:51.050Z,6.83
2019-03-25T06:19:20.963Z,6.87
2019-03-25T06:21:50.889Z,7.04
2019-03-25T06:24:20.838Z,7.16
2019-03-25T06:26:50.833Z,7.18
2019-03-25T06:29:20.762Z,7.33
2019-03-25T06:31:50.660Z,7.44
2019-03-25T06:34:20.580Z,7.56
2019-03-25T06:36:50.483Z,7.68
2019-03-25T06:39:20.380Z,7.79
2019-03-25T06:41:50.304Z,7.86
2019-03-25T06:44:20.199Z,7.90
2019-03-25T06:46:50.106Z,8.08
2019-03-25T06:49:20.039Z,8.19
2019-03-25T06:51:50.045Z,8.29
2019-03-25T06:54:19.954Z,8.36
2019-03-25T06:56:49.860Z,8.46
2019-03-25T06:59:19.800Z,8.50
2019-03-25T07:01:49.705Z,8.67
2019-03-25T07:04:19.630Z,8.78
2019-03-25T07:06:49.513Z,8.80
2019-03-25T07:09:19.405Z,8.91
2019-03-25T07:11:49.638Z,9.03
2019-03-25T07:14:19.556Z,9.09
2019-03-25T07:16:49.473Z,9.16
2019-03-25T07:19:19.382Z,9.29
2019-03-25T07:21:49.310Z,9.41
2019-03-25T07:24:19.229Z,9.46
2019-03-25T07:26:49.129Z,9.36
2019-03-25T07:29:19.058Z,9.42
2019-03-25T07:31:48.949Z,9.57
2019-03-25T07:34:18.850Z,9.63
2019-03-25T07:36:48.743Z,9.84
2019-03-25T07:39:18.651Z,9.86
2019-03-25T07:41:48.636Z,9.98
2019-03-25T07:44:20.271Z,10.10
2019-03-25T07:46:50.358Z,10.22
2019-03-25T07:49:20.259Z,10.35
2019-03-25T07:51:50.224Z,10.52
2019-03-25T07:54:20.231Z,10.63
2019-03-25T07:56:50.131Z,10.79
2019-03-25T07:59:20.332Z,10.83
2019-03-25T08:01:50.305Z,10.84
2019-03-25T08:04:20.182Z,10.88
2019-03-25T08:06:50.120Z,10.84
2019-03-25T08:09:20.155Z,10.94
2019-03-25T08:11:50.127Z,11.06
2019-03-25T08:14:20.001Z,11.25
2019-03-25T08:16:49.908Z,11.37
2019-03-25T08:19:19.827Z,11.47
2019-03-25T08:21:50.025Z,11.49
2019-03-25T08:24:19.930Z,11.66
2019-03-25T08:26:49.813Z,11.91
2019-03-25T08:29:19.695Z,12.01
2019-03-25T08:31:49.603Z,12.07
2019-03-25T08:34:19.519Z,12.13
2019-03-25T08:36:49.431Z,12.18
2019-03-25T08:39:19.342Z,12.24
2019-03-25T08:41:49.272Z,12.22
2019-03-25T08:44:19.179Z,12.40
2019-03-25T08:46:49.146Z,12.48
2019-03-25T08:49:19.022Z,12.67
2019-03-25T08:51:48.958Z,12.87
2019-03-25T08:54:18.860Z,13.06
2019-03-25T08:56:48.771Z,13.26
2019-03-25T08:59:18.739Z,13.47
2019-03-25T09:01:48.638Z,13.67
2019-03-25T09:04:18.650Z,13.77
2019-03-25T09:06:48.558Z,14.04
2019-03-25T09:09:18.491Z,14.22
2019-03-25T09:11:48.565Z,14.27
2019-03-25T09:14:18.482Z,14.39
2019-03-25T09:16:48.383Z,14.45
2019-03-25T09:19:18.333Z,14.55
2019-03-25T09:21:48.217Z,14.55
2019-03-25T09:24:18.147Z,14.55
2019-03-25T09:26:48.082Z,14.66
2019-03-25T09:29:18.004Z,14.91
2019-03-25T09:31:47.920Z,15.00
2019-03-25T09:34:17.816Z,15.13
2019-03-25T09:36:47.770Z,15.18
2019-03-25T09:39:17.687Z,15.37
2019-03-25T09:41:47.614Z,15.47
2019-03-25T09:44:17.508Z,15.62
2019-03-25T09:46:47.392Z,15.81
2019-03-25T09:49:17.319Z,15.90
2019-03-25T09:51:47.223Z,16.04
2019-03-25T09:54:17.162Z,16.01
2019-03-25T09:56:47.199Z,16.10
2019-03-25T09:59:17.089Z,16.32
2019-03-25T10:01:47.014Z,16.40
2019-03-25T10:04:16.950Z,16.45
2019-03-25T10:06:47.035Z,16.70
2019-03-25T10:09:17.042Z,16.99
2019-03-25T10:11:46.973Z,17.38
2019-03-25T10:14:16.876Z,17.67
2019-03-25T10:16:46.785Z,18.04
2019-03-25T10:19:16.685Z,18.32
2019-03-25T10:21:46.603Z,19.03
2019-03-25T10:24:16.564Z,19.77
2019-03-25T10:26:46.460Z,20.36
2019-03-25T10:29:16.348Z,21.00
2019-03-25T10:31:46.284Z,21.55
2019-03-25T10:34:16.190Z,22.38
2019-03-25T10:36:46.093Z,22.81
2019-03-25T10:39:16.008Z,23.25
2019-03-25T10:41:45.935Z,23.51
2019-03-25T10:44:15.844Z,23.72
2019-03-25T10:46:45.742Z,23.89
2019-03-25T10:49:16.397Z,23.88
2019-03-25T10:51:46.485Z,24.24
2019-03-25T10:54:16.458Z,24.02
2019-03-25T10:56:49.265Z,24.31
2019-03-25T10:59:18.000Z,24.10
2019-03-25T11:01:47.888Z,23.65
2019-03-25T11:04:17.781Z,23.25
2019-03-25T11:06:47.681Z,23.86
2019-03-25T11:09:17.582Z,24.24
2019-03-25T11:11:47.488Z,24.63
2019-03-25T11:14:17.446Z,24.93
2019-03-25T11:16:47.434Z,25.36
2019-03-25T11:19:17.351Z,25.56
2019-03-25T11:21:47.308Z,25.90
2019-03-25T11:24:17.232Z,25.92
2019-03-25T11:26:47.158Z,26.15
2019-03-25T11:29:17.066Z,26.30
2019-03-25T11:31:46.932Z,26.33
2019-03-25T11:34:16.830Z,26.02
2019-03-25T11:36:46.735Z,26.31
2019-03-25T11:39:16.655Z,26.69
2019-03-25T11:41:46.588Z,26.72
2019-03-25T11:44:16.510Z,26.25
2019-03-25T11:46:46.497Z,25.97
2019-03-25T11:49:16.881Z,25.98
2019-03-25T11:51:46.820Z,26.29
2019-03-25T11:54:16.805Z,26.48
2019-03-25T11:56:46.738Z,25.98
2019-03-25T11:59:18.864Z,25.86
2019-03-25T12:01:48.255Z,26.23
2019-03-25T12:04:18.147Z,25.83
2019-03-25T12:06:48.071Z,26.30
2019-03-25T12:09:18.260Z,26.79
2019-03-25T12:11:48.179Z,27.12
2019-03-25T12:14:18.072Z,26.82
2019-03-25T12:16:47.994Z,26.69
2019-03-25T12:19:17.928Z,27.08
2019-03-25T12:21:47.815Z,27.30
2019-03-25T12:24:17.755Z,27.61
2019-03-25T12:26:47.705Z,27.93
2019-03-25T12:29:17.619Z,26.93
2019-03-25T12:31:47.506Z,26.26
2019-03-25T12:34:17.418Z,25.81
2019-03-25T12:36:47.337Z,24.99
2019-03-25T12:39:17.247Z,25.16
2019-03-25T12:41:47.167Z,24.98
2019-03-25T12:44:17.112Z,24.95
2019-03-25T12:46:47.006Z,24.84
2019-03-25T12:49:16.904Z,25.51
2019-03-25T12:51:48.479Z,25.72
2019-03-25T12:54:18.632Z,26.33
2019-03-25T12:56:48.558Z,26.74
2019-03-25T12:59:18.471Z,26.98
2019-03-25T13:01:53.228Z,27.51
2019-03-25T13:04:20.154Z,27.88
2019-03-25T13:06:50.100Z,28.14
2019-03-25T13:09:20.002Z,27.81
2019-03-25T13:11:49.884Z,27.30
2019-03-25T13:14:19.785Z,27.09
2019-03-25T13:16:49.694Z,26.76
2019-03-25T13:19:19.604Z,26.95
2019-03-25T13:21:49.484Z,26.98
2019-03-25T13:24:19.395Z,27.12
2019-03-25T13:26:49.410Z,27.31
2019-03-25T13:29:19.329Z,27.50
2019-03-25T13:31:49.243Z,27.47
2019-03-25T13:34:19.154Z,27.35
2019-03-25T13:36:49.092Z,26.56
2019-03-25T13:39:19.013Z,26.26
2019-03-25T13:41:48.933Z,25.35
2019-03-25T13:44:18.863Z,24.52
2019-03-25T13:46:48.779Z,23.89
2019-03-25T13:49:18.688Z,23.51
2019-03-25T13:51:48.610Z,23.20
2019-03-25T13:54:37.883Z,23.13
2019-03-25T13:57:07.769Z,22.95
2019-03-25T13:59:37.689Z,22.73
2019-03-25T14:02:07.631Z,22.71
2019-03-25T14:04:37.560Z,22.87
2019-03-25T14:07:07.491Z,23.10
2019-03-25T14:09:37.382Z,23.87
2019-03-25T14:12:07.275Z,24.05
2019-03-25T14:14:37.187Z,23.40
2019-03-25T14:17:07.088Z,23.28
2019-03-25T14:19:37.047Z,23.11
2019-03-25T14:22:06.963Z,23.33
2019-03-25T14:24:37.824Z,23.38
2019-03-25T14:27:07.749Z,22.95
2019-03-25T14:29:37.744Z,23.21
2019-03-25T14:32:07.721Z,22.97
2019-03-25T14:34:44.734Z,22.64
2019-03-25T14:37:09.254Z,22.65
2019-03-25T14:39:39.313Z,23.00
2019-03-25T14:42:09.233Z,23.59
2019-03-25T14:44:39.177Z,24.10
2019-03-25T14:47:09.114Z,24.26
2019-03-25T14:49:39.014Z,23.80
2019-03-25T14:52:09.043Z,23.51
2019-03-25T14:54:40.102Z,22.94
2019-03-25T14:57:10.298Z,23.37
2019-03-25T14:59:40.247Z,23.58
2019-03-25T15:02:10.147Z,23.58
2019-03-25T15:04:40.052Z,23.44
2019-03-25T15:07:09.965Z,23.56
2019-03-25T15:09:39.875Z,23.51
2019-03-25T15:12:09.758Z,23.22
2019-03-25T15:14:39.703Z,22.97
2019-03-25T15:17:09.607Z,22.72
2019-03-25T15:19:39.644Z,22.11
2019-03-25T15:24:37.935Z,22.31
2019-03-25T15:27:07.922Z,22.28
2019-03-25T15:29:37.847Z,22.20
2019-03-25T15:32:07.734Z,21.96
2019-03-25T15:34:37.633Z,22.25
2019-03-25T15:37:07.570Z,22.25
2019-03-25T15:39:46.312Z,22.37
2019-03-25T15:42:09.150Z,22.58
2019-03-25T15:44:39.091Z,22.74
2019-03-25T15:47:08.976Z,22.86
2019-03-25T15:49:38.883Z,22.78
2019-03-25T15:52:08.815Z,23.14
2019-03-25T15:54:38.719Z,23.51
2019-03-25T15:57:08.680Z,23.73
2019-03-25T15:59:38.560Z,23.86
2019-03-25T16:02:08.450Z,23.88
2019-03-25T16:04:38.368Z,24.02
2019-03-25T16:07:08.386Z,23.97
2019-03-25T16:09:38.323Z,24.00
2019-03-25T16:12:08.268Z,23.81
2019-03-25T16:14:38.286Z,23.50
2019-03-25T16:17:08.223Z,23.02
2019-03-25T16:19:38.123Z,22.83
2019-03-25T16:22:08.239Z,22.47
2019-03-25T16:24:38.127Z,22.00
2019-03-25T16:27:08.042Z,21.79
2019-03-25T16:29:37.918Z,21.52
2019-03-25T16:32:07.836Z,21.32
2019-03-25T16:34:38.705Z,21.25
2019-03-25T16:37:08.661Z,20.92
2019-03-25T16:39:38.603Z,20.69
2019-03-25T16:42:08.587Z,20.48
2019-03-25T16:44:38.509Z,20.20
2019-03-25T16:47:08.425Z,20.08
2019-03-25T16:49:38.371Z,19.83
2019-03-25T16:52:08.284Z,19.85
2019-03-25T16:54:38.199Z,19.81
2019-03-25T16:57:08.113Z,19.77
2019-03-25T16:59:40.495Z,19.75
2019-03-25T17:02:09.660Z,19.64
2019-03-25T17:04:39.638Z,19.52
2019-03-25T17:07:09.557Z,19.46
2019-03-25T17:09:39.497Z,19.44
2019-03-25T17:12:09.421Z,19.48
2019-03-25T17:14:39.460Z,19.52
2019-03-25T17:17:09.405Z,19.50
2019-03-25T17:19:39.385Z,19.46
2019-03-25T17:22:09.328Z,19.37
2019-03-25T17:24:39.238Z,19.37
2019-03-25T17:27:09.150Z,19.38
2019-03-25T17:29:39.148Z,19.21
2019-03-25T17:32:09.105Z,19.15
2019-03-25T17:34:39.082Z,19.05
2019-03-25T17:37:09.007Z,18.95
2019-03-25T17:39:39.012Z,18.81
2019-03-25T17:42:08.953Z,18.77
2019-03-25T17:44:38.880Z,18.82
2019-03-25T17:47:08.810Z,18.72
2019-03-25T17:49:38.748Z,18.57
2019-03-25T17:52:08.697Z,18.66
2019-03-25T17:54:38.624Z,18.57
2019-03-25T17:57:08.738Z,18.46
2019-03-25T17:59:38.641Z,18.41
2019-03-25T18:02:08.536Z,18.27
2019-03-25T18:04:38.490Z,18.22
2019-03-25T18:07:08.405Z,18.12
2019-03-25T18:09:39.890Z,18.16
2019-03-25T18:12:09.787Z,18.12
2019-03-25T18:14:39.696Z,18.06
2019-03-25T18:17:09.644Z,17.97
2019-03-25T18:19:39.658Z,17.96
2019-03-25T18:22:09.611Z,17.88
2019-03-25T18:24:39.550Z,17.80
2019-03-25T18:27:09.478Z,17.78
2019-03-25T18:29:39.445Z,17.68
2019-03-25T18:32:09.457Z,17.60
2019-03-25T18:34:40.196Z,17.62
2019-03-25T18:37:10.719Z,17.41
2019-03-25T18:39:40.621Z,17.40
2019-03-25T18:42:10.526Z,17.19
2019-03-25T18:44:40.487Z,17.19
2019-03-25T18:47:10.453Z,17.17
2019-03-25T18:49:40.385Z,17.13
2019-03-25T18:52:10.705Z,17.10
2019-03-25T18:54:40.660Z,17.00
2019-03-25T18:57:10.744Z,16.98
2019-03-25T18:59:40.657Z,17.02
2019-03-25T19:02:10.638Z,16.92
2019-03-25T19:04:40.569Z,16.91
2019-03-25T19:07:10.597Z,16.83
2019-03-25T19:09:40.534Z,16.84
2019-03-25T19:12:10.422Z,16.79
2019-03-25T19:14:40.347Z,16.51
2019-03-25T19:17:10.268Z,16.51
2019-03-25T19:19:40.175Z,16.41
2019-03-25T19:22:12.625Z,16.41
2019-03-25T19:24:41.742Z,16.53
2019-03-25T19:27:12.664Z,16.47
2019-03-25T19:29:42.640Z,16.48
2019-03-25T19:32:12.566Z,16.37
2019-03-25T19:34:42.491Z,16.40
2019-03-25T19:37:12.426Z,16.36
2019-03-25T19:39:42.353Z,16.38
2019-03-25T19:42:12.303Z,16.24
2019-03-25T19:44:43.361Z,16.14
2019-03-25T19:47:13.329Z,15.87
2019-03-25T19:49:43.269Z,15.90
2019-03-25T19:52:13.206Z,15.78
2019-03-25T19:54:45.466Z,15.67
2019-03-25T19:57:15.423Z,15.58
2019-03-25T19:59:45.369Z,15.48
2019-03-25T20:02:19.273Z,15.41
2019-03-25T20:04:46.962Z,15.38
2019-03-25T20:07:16.951Z,15.23
2019-03-25T20:09:46.896Z,15.15
2019-03-25T20:12:16.806Z,15.13
2019-03-25T20:14:46.787Z,15.04
2019-03-25T20:17:16.716Z,15.07
2019-03-25T20:19:46.674Z,14.97
2019-03-25T20:22:16.626Z,14.93
2019-03-25T20:24:48.815Z,14.89
2019-03-25T20:27:19.071Z,14.79
2019-03-25T20:29:49.088Z,14.79
2019-03-25T20:32:30.996Z,14.62
2019-03-25T20:34:50.641Z,14.53
2019-03-25T20:37:20.576Z,14.58
2019-03-25T20:39:50.499Z,14.45
2019-03-25T20:42:20.415Z,14.44
2019-03-25T20:44:50.405Z,14.47
2019-03-25T20:47:20.400Z,14.38
2019-03-25T20:49:50.344Z,14.28
2019-03-25T20:52:20.311Z,14.25
2019-03-25T20:54:50.417Z,14.12
2019-03-25T20:57:20.434Z,14.09
2019-03-25T20:59:50.358Z,14.04
2019-03-25T21:02:20.280Z,13.95
2019-03-25T21:04:50.309Z,13.92
2019-03-25T21:07:20.743Z,13.82
2019-03-25T21:09:50.686Z,13.80
2019-03-25T21:12:20.621Z,13.80
2019-03-25T21:14:50.642Z,13.73
2019-03-25T21:17:20.598Z,13.68
2019-03-25T21:19:50.603Z,13.60
2019-03-25T21:22:20.539Z,13.55
2019-03-25T21:24:50.925Z,13.52
2019-03-25T21:27:20.836Z,13.40
2019-03-25T21:29:50.813Z,13.37
2019-03-25T21:32:20.773Z,13.34
2019-03-25T21:34:50.743Z,13.28
2019-03-25T21:37:20.663Z,13.29
2019-03-25T21:39:50.695Z,13.27
2019-03-25T21:42:20.642Z,13.23
2019-03-25T21:44:50.535Z,13.19
2019-03-25T21:47:20.482Z,13.22
2019-03-25T21:49:50.404Z,13.13
2019-03-25T21:52:20.426Z,13.11
2019-03-25T21:54:50.422Z,13.04
2019-03-25T21:57:20.311Z,13.13
2019-03-25T21:59:50.419Z,13.15
2019-03-25T22:02:23.174Z,13.13
2019-03-25T22:04:53.173Z,13.11
2019-03-25T22:07:23.078Z,13.20
2019-03-25T22:09:52.991Z,13.17
2019-03-25T22:12:22.927Z,13.17
2019-03-25T22:14:52.816Z,13.19
2019-03-25T22:17:22.766Z,13.18
2019-03-25T22:19:52.679Z,12.88
2019-03-25T22:22:22.695Z,12.94
2019-03-25T22:24:52.598Z,12.96
2019-03-25T22:27:23.388Z,13.02
2019-03-25T22:29:53.320Z,13.08
2019-03-25T22:32:23.209Z,12.99
2019-03-25T22:34:53.116Z,12.91
2019-03-25T22:37:23.011Z,12.83
2019-03-25T22:39:53.021Z,12.74
2019-03-25T22:42:22.943Z,12.67
2019-03-25T22:44:52.847Z,12.65
2019-03-25T22:47:22.811Z,12.64
2019-03-25T22:49:52.725Z,12.60
2019-03-25T22:52:22.641Z,12.49
2019-03-25T22:54:52.597Z,12.42
2019-03-25T22:57:22.556Z,12.33
2019-03-25T22:59:52.526Z,12.16
2019-03-25T23:02:22.462Z,12.13
2019-03-25T23:04:52.386Z,12.27
2019-03-25T23:07:22.319Z,12.14
2019-03-25T23:09:52.242Z,12.16
2019-03-25T23:12:22.211Z,12.16
2019-03-25T23:14:52.210Z,12.09
2019-03-25T23:17:22.198Z,12.09
2019-03-25T23:19:52.216Z,12.06
2019-03-25T23:22:22.231Z,12.04
2019-03-25T23:24:52.227Z,11.99
2019-03-25T23:27:22.210Z,11.97
2019-03-25T23:29:52.126Z,11.92
2019-03-25T23:32:22.067Z,11.88
2019-03-25T23:34:52.099Z,11.78
2019-03-25T23:37:22.057Z,11.44
2019-03-25T23:39:52.054Z,11.50
2019-03-25T23:42:21.972Z,11.53
2019-03-25T23:44:51.862Z,11.56
2019-03-25T23:47:21.778Z,11.59
2019-03-25T23:49:51.736Z,11.56
2019-03-25T23:52:21.674Z,11.59
2019-03-25T23:54:51.573Z,11.54
2019-03-25T23:57:21.480Z,11.44
2019-03-25T23:59:51.453Z,11.48
